createdAt,value
2023-01-20T00:01:57.441Z,100978.09
2023-01-20T00:03:59.090Z,100982.41
2023-01-20T00:06:00.636Z,100983.25
2023-01-20T00:08:02.111Z,100985.81
2023-01-20T00:10:03.784Z,100985.75
2023-01-20T00:12:05.499Z,100985.72
2023-01-20T00:14:07.009Z,100989.19
2023-01-20T00:16:10.626Z,100990.00
2023-01-20T00:18:12.170Z,100983.97
2023-01-20T00:20:13.686Z,100988.28
2023-01-20T00:22:15.162Z,100993.44
2023-01-20T00:24:16.628Z,100996.03
2023-01-20T00:26:20.209Z,100990.78
2023-01-20T00:28:21.683Z,100999.44
2023-01-20T00:30:23.213Z,101000.34
2023-01-20T00:32:24.684Z,101002.00
2023-01-20T00:34:26.136Z,101001.09
2023-01-20T00:36:31.644Z,101008.00
2023-01-20T00:38:33.281Z,101013.19
2023-01-20T00:40:34.718Z,101013.13
2023-01-20T00:42:36.202Z,101017.41
2023-01-20T00:44:37.682Z,101022.63
2023-01-20T00:46:39.194Z,101020.00
2023-01-20T00:48:41.545Z,101019.94
2023-01-20T00:50:43.328Z,101029.41
2023-01-20T00:52:44.785Z,101025.91
2023-01-20T00:54:46.254Z,101038.03
2023-01-20T00:56:47.705Z,101043.31
2023-01-20T00:58:49.207Z,101043.31
2023-01-20T01:00:51.905Z,101051.94
2023-01-20T01:02:55.004Z,101057.03
2023-01-20T01:04:56.594Z,101063.09
2023-01-20T01:06:58.097Z,101063.97
2023-01-20T01:08:59.618Z,101075.22
2023-01-20T01:11:01.153Z,101076.19
2023-01-20T01:13:03.990Z,101082.31
2023-01-20T01:15:06.033Z,101080.63
2023-01-20T01:17:07.506Z,101082.38
2023-01-20T01:19:08.998Z,101091.94
2023-01-20T01:21:13.409Z,101089.38
2023-01-20T01:23:14.875Z,101083.38
2023-01-20T01:25:16.696Z,101087.69
2023-01-20T01:27:18.175Z,101084.25
2023-01-20T01:29:19.612Z,101082.50
2023-01-20T01:31:22.015Z,101088.59
2023-01-20T01:33:23.527Z,101090.34
2023-01-20T01:35:25.040Z,101085.16
2023-01-20T01:37:27.927Z,101086.91
2023-01-20T01:39:29.404Z,101092.09
2023-01-20T01:41:31.196Z,101092.09
2023-01-20T01:43:35.994Z,101101.63
2023-01-20T01:45:37.943Z,101097.25
2023-01-20T01:47:48.229Z,101102.44
2023-01-20T01:49:49.727Z,101109.31
2023-01-20T01:51:57.367Z,101117.09
2023-01-20T01:54:05.175Z,101121.44
2023-01-20T01:56:07.193Z,101123.22
2023-01-20T01:58:13.956Z,101115.44
2023-01-20T02:00:15.794Z,101118.91
2023-01-20T02:02:20.379Z,101126.75
2023-01-20T02:04:27.888Z,101126.75
2023-01-20T02:06:33.681Z,101131.13
2023-01-20T02:08:35.316Z,101131.13
2023-01-20T02:10:36.843Z,101133.75
2023-01-20T02:12:39.695Z,101145.88
2023-01-20T02:14:45.849Z,101143.28
2023-01-20T02:16:47.246Z,101144.19
2023-01-20T02:19:09.834Z,101143.41
2023-01-20T02:21:23.523Z,101146.00
2023-01-20T02:23:53.477Z,101151.19
2023-01-20T02:26:14.665Z,101155.53
2023-01-20T02:28:31.376Z,101158.13
2023-01-20T02:31:06.931Z,101154.69
2023-01-20T02:33:20.417Z,101156.44
2023-01-20T02:35:25.835Z,101159.94
2023-01-20T02:37:44.223Z,101153.91
2023-01-20T02:40:03.598Z,101159.94
2023-01-20T02:42:11.300Z,101171.16
2023-01-20T02:44:36.179Z,101169.44
2023-01-20T02:47:04.080Z,101169.44
2023-01-20T02:49:09.064Z,101177.22
2023-01-20T02:51:17.903Z,101179.00
2023-01-20T02:53:21.211Z,101186.75
2023-01-20T02:55:33.871Z,101191.13
2023-01-20T02:57:48.741Z,101189.47
2023-01-20T02:59:55.622Z,101197.28
2023-01-20T03:02:05.182Z,101197.28
2023-01-20T03:04:10.563Z,101201.66
2023-01-20T03:06:21.202Z,101206.91
2023-01-20T03:08:26.122Z,101206.06
2023-01-20T03:10:33.205Z,101216.50
2023-01-20T03:12:46.543Z,101213.91
2023-01-20T03:14:49.851Z,101217.38
2023-01-20T03:16:51.463Z,101216.53
2023-01-20T03:18:55.275Z,101218.28
2023-01-20T03:20:59.419Z,101226.94
2023-01-20T03:23:00.951Z,101219.16
2023-01-20T03:25:03.541Z,101216.56
2023-01-20T03:27:05.298Z,101217.41
2023-01-20T03:29:09.315Z,101223.44
2023-01-20T03:31:17.603Z,101232.13
2023-01-20T03:33:19.383Z,101219.16
2023-01-20T03:35:21.200Z,101227.81
2023-01-20T03:37:23.309Z,101227.88
2023-01-20T03:39:25.949Z,101218.41
2023-01-20T03:41:36.488Z,101217.53
2023-01-20T03:44:16.912Z,101217.53
2023-01-20T03:46:32.158Z,101225.34
2023-01-20T03:48:46.304Z,101237.47
2023-01-20T03:50:47.699Z,101242.66
2023-01-20T03:52:55.471Z,101241.88
2023-01-20T03:55:05.748Z,101241.06
2023-01-20T03:57:13.262Z,101244.53
2023-01-20T03:59:18.922Z,101245.38
2023-01-20T04:01:27.085Z,101239.31
2023-01-20T04:03:32.434Z,101245.41
2023-01-20T04:05:34.829Z,101241.09
2023-01-20T04:07:39.195Z,101242.00
2023-01-20T04:09:45.859Z,101251.56
2023-01-20T04:11:47.323Z,101247.28
2023-01-20T04:13:50.323Z,101244.66
2023-01-20T04:15:51.948Z,101247.25
2023-01-20T04:17:53.607Z,101256.81
2023-01-20T04:19:55.944Z,101259.47
2023-01-20T04:22:02.484Z,101254.31
2023-01-20T04:24:14.814Z,101251.69
2023-01-20T04:26:16.250Z,101253.41
2023-01-20T04:28:17.772Z,101257.75
2023-01-20T04:30:19.741Z,101256.00
2023-01-20T04:32:21.208Z,101254.31
2023-01-20T04:34:22.667Z,101255.25
2023-01-20T04:36:24.130Z,101256.16
2023-01-20T04:38:25.562Z,101263.94
2023-01-20T04:40:27.407Z,101263.94
2023-01-20T04:42:29.039Z,101259.59
2023-01-20T04:44:30.531Z,101264.81
2023-01-20T04:46:32.049Z,101261.34
2023-01-20T04:48:33.552Z,101261.34
2023-01-20T04:50:41.312Z,101265.66
2023-01-20T04:52:43.150Z,101265.69
2023-01-20T04:54:44.670Z,101269.19
2023-01-20T04:56:48.868Z,101266.59
2023-01-20T04:58:50.420Z,101270.97
2023-01-20T05:00:51.900Z,101265.72
2023-01-20T05:02:53.464Z,101274.41
2023-01-20T05:04:54.938Z,101274.38
2023-01-20T05:06:56.437Z,101277.00
2023-01-20T05:08:57.911Z,101273.56
2023-01-20T05:10:59.393Z,101281.34
2023-01-20T05:13:01.334Z,101281.34
2023-01-20T05:15:02.976Z,101289.16
2023-01-20T05:17:04.454Z,101288.31
2023-01-20T05:19:05.957Z,101286.59
2023-01-20T05:21:08.836Z,101294.38
2023-01-20T05:23:10.371Z,101295.28
2023-01-20T05:25:11.842Z,101290.06
2023-01-20T05:27:13.285Z,101296.19
2023-01-20T05:29:14.741Z,101301.38
2023-01-20T05:31:16.820Z,101297.06
2023-01-20T05:33:18.382Z,101297.06
2023-01-20T05:35:20.052Z,101298.78
2023-01-20T05:37:21.517Z,101302.25
2023-01-20T05:39:23.063Z,101306.59
2023-01-20T05:41:24.522Z,101313.53
2023-01-20T05:43:26.058Z,101307.47
2023-01-20T05:45:28.152Z,101318.75
2023-01-20T05:47:29.703Z,101317.00
2023-01-20T05:49:31.189Z,101314.44
2023-01-20T05:51:32.735Z,101321.34
2023-01-20T05:53:34.173Z,101327.41
2023-01-20T05:55:35.747Z,101327.41
2023-01-20T05:57:37.274Z,101325.69
2023-01-20T05:59:38.716Z,101334.38
2023-01-20T06:01:40.846Z,101333.53
2023-01-20T06:03:42.593Z,101337.00
2023-01-20T06:05:44.155Z,101338.75
2023-01-20T06:07:45.800Z,101341.34
2023-01-20T06:09:47.290Z,101349.13
2023-01-20T06:11:48.781Z,101347.44
2023-01-20T06:13:50.520Z,101355.25
2023-01-20T06:15:53.563Z,101360.44
2023-01-20T06:17:55.427Z,101360.50
2023-01-20T06:19:56.918Z,101362.28
2023-01-20T06:21:58.430Z,101359.69
2023-01-20T06:23:59.927Z,101358.81
2023-01-20T06:26:07.711Z,101358.78
2023-01-20T06:28:09.341Z,101363.97
2023-01-20T06:30:11.175Z,101374.44
2023-01-20T06:32:12.803Z,101375.31
2023-01-20T06:34:14.456Z,101377.97
2023-01-20T06:36:17.600Z,101378.03
2023-01-20T06:38:19.099Z,101380.59
2023-01-20T06:40:20.549Z,101380.59
2023-01-20T06:42:22.075Z,101388.44
2023-01-20T06:44:23.585Z,101388.41
2023-01-20T06:46:25.242Z,101395.38
2023-01-20T06:48:27.161Z,101378.91
2023-01-20T06:50:28.751Z,101388.41
2023-01-20T06:52:30.244Z,101398.88
2023-01-20T06:54:31.987Z,101395.44
2023-01-20T06:56:33.455Z,101404.16
2023-01-20T06:58:34.961Z,101405.03
2023-01-20T07:00:36.489Z,101406.78
2023-01-20T07:02:38.055Z,101405.03
2023-01-20T07:04:39.579Z,101409.41
2023-01-20T07:06:42.124Z,101421.47
2023-01-20T07:08:44.959Z,101416.28
2023-01-20T07:10:46.472Z,101416.28
2023-01-20T07:12:47.939Z,101428.50
2023-01-20T07:14:49.404Z,101424.19
2023-01-20T07:16:50.923Z,101431.09
2023-01-20T07:18:53.384Z,101427.66
2023-01-20T07:20:55.957Z,101435.44
2023-01-20T07:23:00.232Z,101443.28
2023-01-20T07:25:01.793Z,101443.25
2023-01-20T07:27:03.339Z,101447.63
2023-01-20T07:29:04.820Z,101446.78
2023-01-20T07:31:34.260Z,101454.59
2023-01-20T07:33:36.498Z,101448.50
2023-01-20T07:35:37.955Z,101456.28
2023-01-20T07:37:39.487Z,101460.59
2023-01-20T07:39:42.154Z,101458.88
2023-01-20T07:41:48.732Z,101460.59
2023-01-20T07:43:51.881Z,101461.47
2023-01-20T07:46:01.675Z,101472.75
2023-01-20T07:48:03.888Z,101475.34
2023-01-20T07:50:05.870Z,101474.47
2023-01-20T07:52:07.460Z,101478.81
2023-01-20T07:54:11.523Z,101484.09
2023-01-20T07:56:16.497Z,101485.84
2023-01-20T07:58:17.955Z,101495.38
2023-01-20T08:00:19.934Z,101494.56
2023-01-20T08:02:21.432Z,101501.50
2023-01-20T08:04:22.932Z,101498.97
2023-01-20T08:06:26.014Z,101502.44
2023-01-20T08:08:27.848Z,101506.81
2023-01-20T08:10:29.434Z,101513.78
2023-01-20T08:12:30.929Z,101514.69
2023-01-20T08:14:32.407Z,101516.47
2023-01-20T08:16:33.966Z,101520.84
2023-01-20T08:18:36.040Z,101527.81
2023-01-20T08:20:40.969Z,101532.19
2023-01-20T08:22:42.435Z,101533.94
2023-01-20T08:24:43.917Z,101539.16
2023-01-20T08:26:45.383Z,101535.78
2023-01-20T08:28:47.792Z,101542.78
2023-01-20T08:30:49.347Z,101543.66
2023-01-20T08:32:50.879Z,101550.59
2023-01-20T08:34:52.415Z,101547.19
2023-01-20T08:36:54.129Z,101548.94
2023-01-20T08:38:57.116Z,101556.84
2023-01-20T08:40:58.556Z,101549.97
2023-01-20T08:43:00.039Z,101559.56
2023-01-20T08:45:01.760Z,101561.38
2023-01-20T08:47:03.271Z,101564.88
2023-01-20T08:49:09.140Z,101564.94
2023-01-20T08:51:14.837Z,101576.25
2023-01-20T08:53:16.436Z,101576.25
2023-01-20T08:55:17.970Z,101577.19
2023-01-20T08:57:19.476Z,101583.31
2023-01-20T08:59:21.065Z,101582.38
2023-01-20T09:01:28.959Z,101587.56
2023-01-20T09:03:32.966Z,101578.88
2023-01-20T09:05:36.806Z,101578.94
2023-01-20T09:07:38.301Z,101581.66
2023-01-20T09:09:39.791Z,101583.44
2023-01-20T09:11:41.457Z,101586.16
2023-01-20T09:13:43.080Z,101588.75
2023-01-20T09:15:51.510Z,101586.09
2023-01-20T09:17:53.000Z,101589.53
2023-01-20T09:19:54.693Z,101593.03
2023-01-20T09:21:56.533Z,101598.28
2023-01-20T09:23:58.026Z,101605.28
2023-01-20T09:26:00.367Z,101603.50
2023-01-20T09:28:01.958Z,101610.38
2023-01-20T09:30:04.851Z,101606.09
2023-01-20T09:32:06.426Z,101612.19
2023-01-20T09:34:07.998Z,101619.25
2023-01-20T09:36:11.107Z,101613.31
2023-01-20T09:38:30.934Z,101624.63
2023-01-20T09:41:02.304Z,101625.53
2023-01-20T09:43:54.485Z,101632.66
2023-01-20T09:46:45.845Z,101633.66
2023-01-20T09:49:27.528Z,101636.38
2023-01-20T09:52:11.355Z,101640.78
2023-01-20T09:54:29.120Z,101650.31
2023-01-20T09:56:36.898Z,101647.81
2023-01-20T09:59:05.333Z,101648.09
2023-01-20T10:01:19.961Z,101647.34
2023-01-20T10:03:37.103Z,101653.34
2023-01-20T10:05:40.165Z,101659.19
2023-01-20T10:07:50.632Z,101657.25
2023-01-20T10:10:10.585Z,101663.31
2023-01-20T10:12:21.740Z,101665.81
2023-01-20T10:14:38.715Z,101664.94
2023-01-20T10:17:09.248Z,101663.19
2023-01-20T10:19:21.997Z,101668.41
2023-01-20T10:21:36.631Z,101663.22
2023-01-20T10:23:48.321Z,101665.84
2023-01-20T10:26:04.933Z,101672.81
2023-01-20T10:28:12.036Z,101675.44
2023-01-20T10:30:15.580Z,101673.75
2023-01-20T10:32:29.227Z,101677.22
2023-01-20T10:34:40.255Z,101679.81
2023-01-20T10:36:45.624Z,101676.38
2023-01-20T10:39:04.676Z,101679.88
2023-01-20T10:41:46.957Z,101673.72
2023-01-20T10:43:48.629Z,101677.13
2023-01-20T10:46:10.385Z,101677.13
2023-01-20T10:48:38.454Z,101680.63
2023-01-20T10:50:49.923Z,101671.19
2023-01-20T10:52:51.327Z,101682.59
2023-01-20T10:55:09.653Z,101683.69
2023-01-20T10:57:15.334Z,101684.66
2023-01-20T10:59:22.260Z,101688.22
2023-01-20T11:01:25.121Z,101689.09
2023-01-20T11:03:28.306Z,101690.84
2023-01-20T11:05:34.480Z,101687.44
2023-01-20T11:07:36.079Z,101694.47
2023-01-20T11:09:37.902Z,101688.31
2023-01-20T11:11:39.767Z,101686.56
2023-01-20T11:13:41.342Z,101691.81
2023-01-20T11:15:53.545Z,101698.81
2023-01-20T11:18:13.737Z,101695.16
2023-01-20T11:20:22.313Z,101688.19
2023-01-20T11:22:31.601Z,101701.75
2023-01-20T11:24:43.771Z,101696.16
2023-01-20T11:26:45.460Z,101703.53
2023-01-20T11:28:57.521Z,101701.63
2023-01-20T11:30:59.346Z,101698.56
2023-01-20T11:33:20.870Z,101714.53
2023-01-20T11:35:25.285Z,101713.66
2023-01-20T11:37:36.222Z,101712.59
2023-01-20T11:39:49.663Z,101721.84
2023-01-20T11:42:11.641Z,101719.59
2023-01-20T11:44:19.947Z,101724.56
2023-01-20T11:46:26.427Z,101723.56
2023-01-20T11:48:27.932Z,101727.22
2023-01-20T11:50:35.130Z,101721.16
2023-01-20T11:52:47.305Z,101730.81
2023-01-20T11:54:48.865Z,101737.66
2023-01-20T11:56:56.994Z,101735.66
2023-01-20T11:59:01.911Z,101731.03
2023-01-20T12:01:06.800Z,101743.91
2023-01-20T12:03:45.932Z,101739.25
2023-01-20T12:06:02.996Z,101737.38
2023-01-20T12:08:08.812Z,101742.59
2023-01-20T12:10:22.084Z,101746.88
2023-01-20T12:12:33.901Z,101756.41
2023-01-20T12:14:47.110Z,101752.00
2023-01-20T12:17:10.472Z,101762.44
2023-01-20T12:19:17.580Z,101758.94
2023-01-20T12:21:22.999Z,101758.81
2023-01-20T12:23:52.610Z,101769.19
2023-01-20T12:26:01.781Z,101767.44
2023-01-20T12:28:10.183Z,101769.94
2023-01-20T12:30:37.864Z,101770.72
2023-01-20T12:32:40.280Z,101774.16
2023-01-20T12:34:41.804Z,101769.81
2023-01-20T12:36:58.514Z,101768.16
2023-01-20T12:39:12.488Z,101780.34
2023-01-20T12:41:27.237Z,101781.16
2023-01-20T12:43:31.420Z,101784.47
2023-01-20T12:45:54.738Z,101780.09
2023-01-20T12:48:02.265Z,101788.00
2023-01-20T12:50:17.804Z,101790.78
2023-01-20T12:52:43.496Z,101801.22
2023-01-20T12:54:54.800Z,101799.47
2023-01-20T12:57:10.478Z,101806.41
2023-01-20T12:59:39.149Z,101814.31
2023-01-20T13:01:55.791Z,101810.97
2023-01-20T13:04:22.297Z,101809.09
2023-01-20T13:06:49.387Z,101811.72
2023-01-20T13:09:12.406Z,101821.38
2023-01-20T13:11:30.471Z,101821.44
2023-01-20T13:13:55.967Z,101823.84
2023-01-20T13:16:07.352Z,101826.16
2023-01-20T13:18:30.012Z,101821.66
2023-01-20T13:20:31.810Z,101821.59
2023-01-20T13:22:34.510Z,101823.34
2023-01-20T13:24:36.967Z,101822.34
2023-01-20T13:26:38.776Z,101821.59
2023-01-20T13:28:51.489Z,101825.22
2023-01-20T13:30:55.226Z,101824.38
2023-01-20T13:33:06.995Z,101826.34
2023-01-20T13:35:25.017Z,101840.47
2023-01-20T13:37:33.189Z,101832.66
2023-01-20T13:39:42.128Z,101839.47
2023-01-20T13:41:53.298Z,101846.47
2023-01-20T13:43:54.904Z,101847.28
2023-01-20T13:46:02.587Z,101851.56
2023-01-20T13:48:06.824Z,101843.69
2023-01-20T13:50:23.672Z,101851.59
2023-01-20T13:52:50.489Z,101851.69
2023-01-20T13:54:51.998Z,101854.25
2023-01-20T13:57:23.322Z,101855.97
2023-01-20T13:59:24.796Z,101864.50
2023-01-20T14:01:28.023Z,101875.78
2023-01-20T14:03:31.255Z,101876.81
2023-01-20T14:05:32.845Z,101879.66
2023-01-20T14:07:35.853Z,101886.94
2023-01-20T14:09:37.378Z,101888.00
2023-01-20T14:11:49.379Z,101894.09
2023-01-20T14:14:05.819Z,101892.22
2023-01-20T14:16:38.097Z,101896.56
2023-01-20T14:18:40.738Z,101899.03
2023-01-20T14:20:42.635Z,101902.50
2023-01-20T14:22:44.163Z,101909.50
2023-01-20T14:24:52.623Z,101910.41
2023-01-20T14:27:12.855Z,101920.88
2023-01-20T14:29:17.687Z,101916.59
2023-01-20T14:31:34.354Z,101920.06
2023-01-20T14:33:43.639Z,101927.88
2023-01-20T14:35:45.209Z,101929.53
2023-01-20T14:37:50.953Z,101926.88
2023-01-20T14:39:54.953Z,101939.00
2023-01-20T14:42:01.052Z,101937.13
2023-01-20T14:44:03.360Z,101942.16
2023-01-20T14:46:05.349Z,101946.53
2023-01-20T14:48:07.421Z,101950.97
2023-01-20T14:50:13.889Z,101957.09
2023-01-20T14:52:28.777Z,101965.78
2023-01-20T14:54:32.968Z,101961.34
2023-01-20T14:56:34.485Z,101976.97
2023-01-20T14:58:36.442Z,101976.94
2023-01-20T15:00:43.805Z,101978.69
2023-01-20T15:02:55.048Z,101972.59
2023-01-20T15:05:19.015Z,101980.41
2023-01-20T15:07:21.708Z,101980.38
2023-01-20T15:09:32.082Z,101990.81
2023-01-20T15:11:34.236Z,101997.75
2023-01-20T15:13:37.768Z,102001.19
2023-01-20T15:15:39.499Z,102001.13
2023-01-20T15:18:27.193Z,102011.56
2023-01-20T15:20:32.091Z,102015.88
2023-01-20T15:22:33.630Z,102014.97
2023-01-20T15:24:35.161Z,102022.78
2023-01-20T15:26:38.703Z,102021.00
2023-01-20T15:28:44.761Z,102036.56
2023-01-20T15:30:46.288Z,102034.75
2023-01-20T15:32:48.546Z,102039.84
2023-01-20T15:34:49.987Z,102043.28
2023-01-20T15:36:52.815Z,102044.91
2023-01-20T15:38:54.463Z,102043.97
2023-01-20T15:40:56.115Z,102052.63
2023-01-20T15:42:57.629Z,102055.16
2023-01-20T15:44:59.083Z,102060.25
2023-01-20T15:47:00.646Z,102061.94
2023-01-20T15:49:02.225Z,102070.63
2023-01-20T15:51:03.856Z,102073.22
2023-01-20T15:53:06.427Z,102076.72
2023-01-20T15:55:13.023Z,102072.34
2023-01-20T15:57:16.832Z,102076.69
2023-01-20T15:59:22.672Z,102079.25
2023-01-20T16:01:26.462Z,102083.56
2023-01-20T16:03:28.404Z,102091.31
2023-01-20T16:05:29.856Z,102095.56
2023-01-20T16:07:31.337Z,102098.94
2023-01-20T16:09:37.102Z,102098.78
2023-01-20T16:11:38.663Z,102102.97
2023-01-20T16:13:40.997Z,102109.81
2023-01-20T16:15:43.309Z,102114.03
2023-01-20T16:17:44.979Z,102116.47
2023-01-20T16:19:47.169Z,102113.66
2023-01-20T16:21:48.623Z,102127.47
2023-01-20T16:23:50.138Z,102129.06
2023-01-20T16:25:51.644Z,102135.81
2023-01-20T16:27:53.193Z,102134.81
2023-01-20T16:29:55.943Z,102142.41
2023-01-20T16:31:57.476Z,102142.28
2023-01-20T16:33:58.969Z,102149.94
2023-01-20T16:36:00.509Z,102152.31
2023-01-20T16:38:04.116Z,102151.31
2023-01-20T16:40:06.572Z,102159.78
2023-01-20T16:42:17.257Z,102152.69
2023-01-20T16:44:18.735Z,102165.53
2023-01-20T16:46:25.856Z,102172.34
2023-01-20T16:48:27.305Z,102175.66
2023-01-20T16:50:28.810Z,102179.91
2023-01-20T16:52:30.331Z,102181.47
2023-01-20T16:54:31.811Z,102189.09
2023-01-20T16:56:33.616Z,102185.44
2023-01-20T16:58:35.071Z,102192.25
2023-01-20T17:00:36.952Z,102196.44
2023-01-20T17:02:39.083Z,102199.78
2023-01-20T17:04:40.621Z,102200.47
2023-01-20T17:06:43.117Z,102200.31
2023-01-20T17:08:49.817Z,102217.53
2023-01-20T17:10:51.316Z,102214.00
2023-01-20T17:12:53.745Z,102215.59
2023-01-20T17:14:55.184Z,102218.91
2023-01-20T17:16:58.563Z,102223.88
2023-01-20T17:19:01.498Z,102233.28
2023-01-20T17:21:07.205Z,102231.44
2023-01-20T17:23:08.650Z,102233.88
2023-01-20T17:25:10.610Z,102238.09
2023-01-20T17:27:12.140Z,102238.75
2023-01-20T17:29:13.713Z,102249.97
2023-01-20T17:31:15.260Z,102257.66
2023-01-20T17:33:16.772Z,102257.56
2023-01-20T17:35:19.783Z,102260.00
2023-01-20T17:37:21.300Z,102269.41
2023-01-20T17:39:22.768Z,102271.00
2023-01-20T17:41:24.223Z,102278.59
2023-01-20T17:43:25.674Z,102274.13
2023-01-20T17:45:30.599Z,102283.59
2023-01-20T17:47:32.199Z,102285.13
2023-01-20T17:49:33.727Z,102291.94
2023-01-20T17:51:35.281Z,102297.84
2023-01-20T17:53:36.839Z,102301.22
2023-01-20T17:55:38.334Z,102314.06
2023-01-20T17:57:40.336Z,102312.19
2023-01-20T17:59:41.809Z,102309.47
2023-01-20T18:01:44.198Z,102306.81
2023-01-20T18:03:47.021Z,102321.41
2023-01-20T18:05:49.097Z,102320.31
2023-01-20T18:07:50.593Z,102322.78
2023-01-20T18:09:52.183Z,102330.47
2023-01-20T18:11:53.643Z,102333.81
2023-01-20T18:13:57.015Z,102337.31
2023-01-20T18:16:07.109Z,102343.31
2023-01-20T18:18:08.636Z,102348.41
2023-01-20T18:20:11.138Z,102350.06
2023-01-20T18:22:14.285Z,102356.00
2023-01-20T18:24:15.787Z,102360.19
2023-01-20T18:26:20.776Z,102367.09
2023-01-20T18:28:22.373Z,102360.97
2023-01-20T18:30:23.844Z,102362.53
2023-01-20T18:32:25.768Z,102362.41
2023-01-20T18:34:27.300Z,102364.00
2023-01-20T18:36:31.823Z,102369.13
2023-01-20T18:38:34.226Z,102372.50
2023-01-20T18:40:35.698Z,102371.53
2023-01-20T18:42:37.158Z,102372.31
2023-01-20T18:44:38.658Z,102375.63
2023-01-20T18:46:40.256Z,102382.47
2023-01-20T18:48:45.825Z,102383.28
2023-01-20T18:50:47.353Z,102383.22
2023-01-20T18:52:48.883Z,102391.75
2023-01-20T18:54:50.330Z,102396.88
2023-01-20T18:56:52.180Z,102399.41
2023-01-20T18:58:55.104Z,102401.94
2023-01-20T19:01:07.224Z,102399.22
2023-01-20T19:03:08.731Z,102403.47
2023-01-20T19:05:10.226Z,102412.88
2023-01-20T19:07:11.712Z,102408.41
2023-01-20T19:09:15.644Z,102408.28
2023-01-20T19:11:20.747Z,102413.38
2023-01-20T19:13:22.207Z,102414.97
2023-01-20T19:15:23.716Z,102423.56
2023-01-20T19:17:26.690Z,102419.13
2023-01-20T19:19:28.197Z,102425.97
2023-01-20T19:21:33.278Z,102419.75
2023-01-20T19:23:34.980Z,102426.56
2023-01-20T19:25:36.512Z,102429.91
2023-01-20T19:27:37.975Z,102430.66
2023-01-20T19:29:41.013Z,102431.47
2023-01-20T19:31:43.398Z,102438.28
2023-01-20T19:33:46.194Z,102446.00
2023-01-20T19:35:47.724Z,102448.53
2023-01-20T19:37:50.000Z,102456.22
2023-01-20T19:39:51.446Z,102465.66
2023-01-20T19:41:53.286Z,102468.09
2023-01-20T19:43:57.208Z,102467.16
2023-01-20T19:46:07.864Z,102482.63
2023-01-20T19:48:09.425Z,102480.78
2023-01-20T19:50:11.056Z,102473.84
2023-01-20T19:52:12.524Z,102481.53
2023-01-20T19:54:13.977Z,102478.00
2023-01-20T19:56:18.210Z,102489.16
2023-01-20T19:58:19.744Z,102487.34
2023-01-20T20:00:21.279Z,102489.91
2023-01-20T20:02:22.813Z,102488.16
2023-01-20T20:04:25.354Z,102494.16
2023-01-20T20:06:32.473Z,102497.63
2023-01-20T20:08:36.231Z,102494.97
2023-01-20T20:10:42.691Z,102508.00
2023-01-20T20:12:44.190Z,102505.41
2023-01-20T20:14:45.696Z,102510.66
2023-01-20T20:16:48.422Z,102514.19
2023-01-20T20:18:51.608Z,102515.16
2023-01-20T20:20:53.053Z,102517.88
2023-01-20T20:22:54.504Z,102513.53
2023-01-20T20:24:56.022Z,102520.56
2023-01-20T20:26:57.544Z,102518.03
2023-01-20T20:29:00.258Z,102514.63
2023-01-20T20:31:06.768Z,102516.47
2023-01-20T20:33:08.646Z,102522.53
2023-01-20T20:35:10.082Z,102519.94
2023-01-20T20:37:11.562Z,102520.84
2023-01-20T20:39:15.620Z,102522.69
2023-01-20T20:41:18.163Z,102525.34
2023-01-20T20:43:23.509Z,102531.47
2023-01-20T20:45:25.747Z,102531.53
2023-01-20T20:47:27.326Z,102547.25
2023-01-20T20:49:30.696Z,102547.31
2023-01-20T20:51:33.909Z,102550.03
2023-01-20T20:53:35.648Z,102551.00
2023-01-20T20:55:41.084Z,102545.97
2023-01-20T20:57:43.516Z,102559.03
2023-01-20T20:59:58.644Z,102557.38
2023-01-20T21:02:01.113Z,102566.13
2023-01-20T21:04:03.782Z,102570.56
2023-01-20T21:06:05.483Z,102578.41
2023-01-20T21:08:06.984Z,102568.16
2023-01-20T21:10:11.404Z,102585.50
2023-01-20T21:12:12.878Z,102578.59
2023-01-20T21:14:14.456Z,102586.53
2023-01-20T21:16:20.660Z,102585.78
2023-01-20T21:18:22.257Z,102585.09
2023-01-20T21:20:23.724Z,102590.50
2023-01-20T21:22:25.431Z,102594.03
2023-01-20T21:24:28.835Z,102592.41
2023-01-20T21:26:31.025Z,102596.84
2023-01-20T21:28:35.499Z,102603.81
2023-01-20T21:30:37.809Z,102602.91
2023-01-20T21:32:40.929Z,102608.25
2023-01-20T21:34:42.419Z,102601.34
2023-01-20T21:36:44.033Z,102615.19
2023-01-20T21:38:46.590Z,102613.66
2023-01-20T21:40:59.876Z,102607.66
2023-01-20T21:43:20.001Z,102616.41
2023-01-20T21:45:22.695Z,102616.47
2023-01-20T21:47:24.228Z,102618.31
2023-01-20T21:49:44.706Z,102625.41
2023-01-20T21:52:04.657Z,102631.63
2023-01-20T21:54:06.108Z,102626.56
2023-01-20T21:56:07.571Z,102624.94
2023-01-20T21:58:10.306Z,102633.66
2023-01-20T22:00:13.104Z,102636.31
2023-01-20T22:02:15.037Z,102637.28
2023-01-20T22:04:16.875Z,102645.97
2023-01-20T22:06:18.337Z,102643.44
2023-01-20T22:08:19.769Z,102645.22
2023-01-20T22:10:21.240Z,102644.44
2023-01-20T22:12:22.806Z,102653.13
2023-01-20T22:14:24.257Z,102657.50
2023-01-20T22:16:26.003Z,102656.63
2023-01-20T22:18:27.494Z,102663.56
2023-01-20T22:20:29.570Z,102662.69
2023-01-20T22:22:31.029Z,102670.41
2023-01-20T22:24:32.593Z,102663.44
2023-01-20T22:26:34.223Z,102671.97
2023-01-20T22:28:39.619Z,102674.50
2023-01-20T22:30:41.364Z,102673.56
2023-01-20T22:32:42.849Z,102673.41
2023-01-20T22:34:44.301Z,102680.25
2023-01-20T22:36:46.724Z,102680.13
2023-01-20T22:38:52.500Z,102679.16
2023-01-20T22:40:53.955Z,102685.97
2023-01-20T22:42:55.430Z,102691.09
2023-01-20T22:44:57.005Z,102692.66
2023-01-20T22:46:58.531Z,102696.09
2023-01-20T22:49:00.102Z,102694.31
2023-01-20T22:51:06.923Z,102695.13
2023-01-20T22:53:08.414Z,102697.50
2023-01-20T22:55:10.005Z,102694.81
2023-01-20T22:57:11.756Z,102693.84
2023-01-20T22:59:13.717Z,102693.78
2023-01-20T23:01:20.897Z,102687.63
2023-01-20T23:03:22.406Z,102689.22
2023-01-20T23:05:23.859Z,102690.84
2023-01-20T23:07:25.427Z,102693.28
2023-01-20T23:09:26.937Z,102696.63
2023-01-20T23:11:28.615Z,102695.59
2023-01-20T23:13:30.163Z,102699.75
2023-01-20T23:15:31.617Z,102707.41
2023-01-20T23:17:33.772Z,102711.53
2023-01-20T23:19:36.093Z,102707.91
2023-01-20T23:21:37.638Z,102717.25
2023-01-20T23:23:39.457Z,102716.22
2023-01-20T23:25:40.974Z,102725.53
2023-01-20T23:27:42.447Z,102723.69
2023-01-20T23:29:43.913Z,102727.81
2023-01-20T23:31:45.394Z,102731.09
2023-01-20T23:33:46.966Z,102734.34
2023-01-20T23:35:48.412Z,102730.63
2023-01-20T23:37:50.049Z,102737.38
2023-01-20T23:39:52.952Z,102738.91
2023-01-20T23:41:54.925Z,102748.31
2023-01-20T23:43:56.527Z,102753.34
2023-01-20T23:45:59.646Z,102744.63
2023-01-20T23:48:01.124Z,102748.75
2023-01-20T23:50:03.039Z,102759.13
2023-01-20T23:52:05.381Z,102763.34